createdAt,value
2019-03-15T00:00:30.911Z,80
2019-03-15T00:01:21.067Z,80
2019-03-15T00:02:10.868Z,80.2
2019-03-15T00:03:00.865Z,80.1
2019-03-15T00:03:50.894Z,80.2
2019-03-15T00:04:40.897Z,80.2
2019-03-15T00:05:30.847Z,80.3
2019-03-15T00:06:21.015Z,80.4
2019-03-15T00:07:10.863Z,80.4
2019-03-15T00:08:00.890Z,80.4
2019-03-15T00:08:52.044Z,80.4
2019-03-15T00:09:41.997Z,80.5
2019-03-15T00:10:31.967Z,80.3
2019-03-15T00:11:21.951Z,80.2
2019-03-15T00:12:12.487Z,80.3
2019-03-15T00:13:02.443Z,80.5
2019-03-15T00:13:52.513Z,80.5
2019-03-15T00:14:42.439Z,80.4
2019-03-15T00:15:32.775Z,80.3
2019-03-15T00:16:22.515Z,80.3
2019-03-15T00:17:12.504Z,80.3
2019-03-15T00:18:02.491Z,80.2
2019-03-15T00:18:52.515Z,80.2
2019-03-15T00:19:42.523Z,80.2
2019-03-15T00:20:32.500Z,80.1
2019-03-15T00:21:22.461Z,80
2019-03-15T00:22:12.472Z,80
2019-03-15T00:23:02.599Z,80
2019-03-15T00:23:52.478Z,80
2019-03-15T00:24:43.092Z,80
2019-03-15T00:25:32.724Z,79.9
2019-03-15T00:26:22.714Z,79.8
2019-03-15T00:27:12.742Z,79.7
2019-03-15T00:28:02.712Z,79.6
2019-03-15T00:28:52.725Z,79.6
2019-03-15T00:29:42.733Z,79.6
2019-03-15T00:30:33.712Z,79.7
2019-03-15T00:31:23.618Z,79.6
2019-03-15T00:32:13.623Z,79.6
2019-03-15T00:33:03.623Z,79.5
2019-03-15T00:33:53.595Z,79.6
2019-03-15T00:34:43.603Z,79.6
2019-03-15T00:35:33.595Z,79.6
2019-03-15T00:36:23.612Z,79.4
2019-03-15T00:37:13.692Z,79.4
2019-03-15T00:38:03.618Z,79.5
2019-03-15T00:38:53.955Z,79.3
2019-03-15T00:39:43.653Z,79.3
2019-03-15T00:40:33.664Z,79.1
2019-03-15T00:41:23.622Z,79.1
2019-03-15T00:42:13.616Z,79.1
2019-03-15T00:43:03.641Z,79.1
2019-03-15T00:43:53.602Z,79.1
2019-03-15T00:44:43.631Z,79.1
2019-03-15T00:45:33.777Z,79
2019-03-15T00:46:24.573Z,79.1
2019-03-15T00:47:14.567Z,79
2019-03-15T00:48:04.621Z,79
2019-03-15T00:48:54.612Z,79
2019-03-15T00:49:44.582Z,79
2019-03-15T00:50:34.635Z,79
2019-03-15T00:51:24.603Z,79.1
2019-03-15T00:52:16.201Z,79
2019-03-15T00:53:06.200Z,78.9
2019-03-15T00:53:56.175Z,78.9
2019-03-15T00:54:46.201Z,78.8
2019-03-15T00:55:36.773Z,79
2019-03-15T00:56:26.487Z,79
2019-03-15T00:57:16.932Z,79
2019-03-15T00:58:06.487Z,79.1
2019-03-15T00:58:56.539Z,79
2019-03-15T00:59:46.490Z,79.1
2019-03-15T01:00:36.446Z,79
2019-03-15T01:01:26.517Z,79
2019-03-15T01:02:16.467Z,79
2019-03-15T01:03:06.487Z,79.1
2019-03-15T01:03:56.460Z,79
2019-03-15T01:04:47.519Z,79.1
2019-03-15T01:05:37.503Z,79
2019-03-15T01:06:27.473Z,78.9
2019-03-15T01:07:17.482Z,78.9
2019-03-15T01:08:07.519Z,79.1
2019-03-15T01:08:57.999Z,78.8
2019-03-15T01:09:48.616Z,78.9
2019-03-15T01:10:37.783Z,79
2019-03-15T01:11:28.259Z,79
2019-03-15T01:12:18.027Z,79
2019-03-15T01:13:07.987Z,79.2
2019-03-15T01:13:58.061Z,79.2
2019-03-15T01:14:47.986Z,79
2019-03-15T01:15:37.963Z,79
2019-03-15T01:16:28.025Z,79
2019-03-15T01:17:18.894Z,78.9
2019-03-15T01:18:08.523Z,79
2019-03-15T01:18:58.524Z,79
2019-03-15T01:19:48.529Z,79.1
2019-03-15T01:20:38.665Z,79
2019-03-15T01:21:28.591Z,79.3
2019-03-15T01:22:18.593Z,79
2019-03-15T01:23:08.558Z,79
2019-03-15T01:23:58.498Z,79.1
2019-03-15T01:24:49.697Z,79
2019-03-15T01:25:39.552Z,79.1
2019-03-15T01:26:30.798Z,79.1
2019-03-15T01:27:20.781Z,79.2
2019-03-15T01:28:10.809Z,79.2
2019-03-15T01:29:01.548Z,79.1
2019-03-15T01:29:51.559Z,79.3
2019-03-15T01:30:41.431Z,79.2
2019-03-15T01:31:31.421Z,79.3
2019-03-15T01:32:21.441Z,79.2
2019-03-15T01:33:11.420Z,79.3
2019-03-15T01:34:01.422Z,79.3
2019-03-15T01:34:51.435Z,79.3
2019-03-15T01:35:41.463Z,79.3
2019-03-15T01:36:31.457Z,79.3
2019-03-15T01:37:22.071Z,79.2
2019-03-15T01:38:11.414Z,79.2
2019-03-15T01:39:01.446Z,79
2019-03-15T01:39:51.445Z,79.2
2019-03-15T01:40:41.407Z,79.2
2019-03-15T01:41:32.478Z,79.5
2019-03-15T01:42:22.400Z,79.5
2019-03-15T01:43:13.272Z,79.3
2019-03-15T01:44:03.347Z,79.2
2019-03-15T01:44:53.276Z,79.1
2019-03-15T01:45:43.440Z,79.2
2019-03-15T01:46:32.391Z,79.1
2019-03-15T01:47:22.395Z,79.1
2019-03-15T01:48:12.436Z,79
2019-03-15T01:49:02.479Z,79
2019-03-15T01:49:52.888Z,79.1
2019-03-15T01:50:42.856Z,79.2
2019-03-15T01:51:32.882Z,79.1
2019-03-15T01:52:22.923Z,79
2019-03-15T01:53:13.026Z,79
2019-03-15T01:54:02.916Z,79
2019-03-15T01:54:52.970Z,78.9
2019-03-15T01:55:43.003Z,78.8
2019-03-15T01:56:32.893Z,78.8
2019-03-15T01:57:23.024Z,78.8
2019-03-15T01:58:14.122Z,78.8
2019-03-15T01:59:03.694Z,78.8
2019-03-15T01:59:53.493Z,78.7
2019-03-15T02:00:43.559Z,78.6
2019-03-15T02:01:33.559Z,78.6
2019-03-15T02:02:23.492Z,78.7
2019-03-15T02:03:13.815Z,78.7
2019-03-15T02:04:03.479Z,78.8
2019-03-15T02:04:53.472Z,78.7
2019-03-15T02:05:44.359Z,78.7
2019-03-15T02:06:33.481Z,78.7
2019-03-15T02:07:23.472Z,78.6
2019-03-15T02:08:13.501Z,78.8
2019-03-15T02:09:03.479Z,78.7
2019-03-15T02:09:53.514Z,78.8
2019-03-15T02:10:45.002Z,78.7
2019-03-15T02:11:33.461Z,78.7
2019-03-15T02:12:23.484Z,78.7
2019-03-15T02:13:13.477Z,78.7
2019-03-15T02:14:03.444Z,78.7
2019-03-15T02:14:53.562Z,78.6
2019-03-15T02:15:44.496Z,78.6
2019-03-15T02:16:34.429Z,78.3
2019-03-15T02:17:24.057Z,78.3
2019-03-15T02:18:14.102Z,78.2
2019-03-15T02:19:04.080Z,78.1
2019-03-15T02:19:54.084Z,78.1
2019-03-15T02:20:44.259Z,78.1
2019-03-15T02:21:34.080Z,78.1
2019-03-15T02:22:24.075Z,77.9
2019-03-15T02:23:14.054Z,78
2019-03-15T02:24:04.342Z,77.8
2019-03-15T02:24:54.072Z,77.9
2019-03-15T02:25:46.992Z,77.9
2019-03-15T02:26:34.058Z,77.8
2019-03-15T02:27:24.806Z,77.9
2019-03-15T02:28:14.075Z,77.9
2019-03-15T02:29:04.074Z,77.9
2019-03-15T02:29:54.072Z,77.9
2019-03-15T02:30:44.202Z,77.8
2019-03-15T02:31:34.138Z,77.8
2019-03-15T02:32:24.088Z,77.8
2019-03-15T02:33:14.093Z,77.8
2019-03-15T02:34:04.262Z,77.9
2019-03-15T02:34:54.214Z,77.8
2019-03-15T02:35:44.063Z,77.8
2019-03-15T02:36:34.053Z,77.8
2019-03-15T02:37:24.416Z,77.8
2019-03-15T02:38:14.092Z,77.7
2019-03-15T02:39:04.059Z,77.7
2019-03-15T02:39:54.075Z,77.7
2019-03-15T02:40:45.429Z,77.7
2019-03-15T02:41:35.154Z,77.7
2019-03-15T02:42:26.021Z,77.7
2019-03-15T02:43:15.139Z,77.7
2019-03-15T02:44:05.114Z,77.4
2019-03-15T02:44:55.497Z,77.5
2019-03-15T02:45:45.195Z,77.5
2019-03-15T02:46:35.169Z,77.4
2019-03-15T02:47:25.121Z,77.4
2019-03-15T02:48:15.182Z,77.4
2019-03-15T02:49:05.178Z,77.4
2019-03-15T02:49:55.151Z,77.3
2019-03-15T02:50:45.197Z,77.3
2019-03-15T02:51:35.194Z,77.3
2019-03-15T02:52:25.202Z,77.4
2019-03-15T02:53:15.183Z,77.5
2019-03-15T02:54:05.127Z,77.5
2019-03-15T02:54:55.198Z,77.3
2019-03-15T02:55:45.445Z,77.4
2019-03-15T02:56:35.162Z,77.4
2019-03-15T02:57:25.211Z,77.4
2019-03-15T02:58:15.126Z,77.4
2019-03-15T02:59:05.184Z,77.4
2019-03-15T02:59:55.164Z,77.5
2019-03-15T03:00:45.205Z,77.5
2019-03-15T03:01:35.174Z,77.5
2019-03-15T03:02:25.175Z,77.4
2019-03-15T03:03:15.266Z,77.5
2019-03-15T03:04:05.195Z,77.5
2019-03-15T03:04:55.142Z,77.6
2019-03-15T03:05:45.218Z,77.5
2019-03-15T03:06:35.143Z,77.6
2019-03-15T03:07:25.127Z,77.6
2019-03-15T03:08:15.166Z,77.6
2019-03-15T03:09:05.158Z,77.4
2019-03-15T03:09:56.310Z,77.5
2019-03-15T03:10:45.807Z,77.5
2019-03-15T03:11:35.777Z,77.6
2019-03-15T03:12:25.885Z,77.6
2019-03-15T03:13:16.037Z,77.6
2019-03-15T03:14:06.104Z,77.6
2019-03-15T03:14:56.158Z,77.6
2019-03-15T03:15:46.207Z,77.5
2019-03-15T03:16:35.736Z,77.6
2019-03-15T03:17:25.678Z,77.4
2019-03-15T03:18:15.791Z,77.4
2019-03-15T03:19:05.806Z,77.4
2019-03-15T03:19:55.921Z,77.5
2019-03-15T03:20:48.161Z,77.5
2019-03-15T03:21:36.505Z,77.5
2019-03-15T03:22:26.742Z,77.5
2019-03-15T03:23:16.941Z,77.5
2019-03-15T03:24:06.959Z,77.5
2019-03-15T03:24:57.014Z,77.5
2019-03-15T03:25:46.519Z,77.5
2019-03-15T03:26:37.421Z,77.4
2019-03-15T03:27:27.639Z,77.4
2019-03-15T03:28:17.590Z,77.6
2019-03-15T03:29:07.580Z,77.6
2019-03-15T03:29:58.542Z,77.6
2019-03-15T03:30:47.611Z,77.7
2019-03-15T03:31:37.615Z,77.7
2019-03-15T03:32:27.772Z,77.7
2019-03-15T03:33:17.563Z,77.7
2019-03-15T03:34:07.662Z,77.7
2019-03-15T03:34:57.929Z,77.7
2019-03-15T03:35:47.556Z,77.6
2019-03-15T03:36:37.627Z,77.6
2019-03-15T03:37:27.613Z,77.6
2019-03-15T03:38:17.598Z,77.7
2019-03-15T03:39:07.653Z,77.7
2019-03-15T03:39:58.521Z,77.8
2019-03-15T03:40:47.582Z,77.8
2019-03-15T03:41:38.395Z,77.8
2019-03-15T03:42:28.386Z,77.8
2019-03-15T03:43:18.327Z,77.9
2019-03-15T03:44:08.327Z,77.9
2019-03-15T03:44:59.093Z,77.9
2019-03-15T03:45:48.317Z,77.9
2019-03-15T03:46:38.313Z,77.9
2019-03-15T03:47:28.341Z,78
2019-03-15T03:48:18.393Z,78.1
2019-03-15T03:49:08.564Z,78.1
2019-03-15T03:49:58.625Z,78.2
2019-03-15T03:50:48.665Z,78.1
2019-03-15T03:51:38.568Z,78.1
2019-03-15T03:52:28.589Z,78.2
2019-03-15T03:53:18.622Z,78.2
2019-03-15T03:54:08.583Z,78.2
2019-03-15T03:54:59.242Z,78.1
2019-03-15T03:55:48.629Z,78.1
2019-03-15T03:56:38.575Z,78.2
2019-03-15T03:57:28.602Z,78.1
2019-03-15T03:58:18.635Z,78.3
2019-03-15T03:59:08.829Z,78.2
2019-03-15T04:00:00.050Z,78.2
2019-03-15T04:00:49.501Z,78.2
2019-03-15T04:01:39.707Z,78.2
2019-03-15T04:02:32.653Z,78.2
2019-03-15T04:03:19.636Z,78.3
2019-03-15T04:04:09.638Z,78.4
2019-03-15T04:05:03.197Z,78.4
2019-03-15T04:05:49.868Z,78.4
2019-03-15T04:06:39.863Z,78.4
2019-03-15T04:07:29.921Z,78.4
2019-03-15T04:08:19.866Z,78.4
2019-03-15T04:09:09.883Z,78.3
2019-03-15T04:10:00.891Z,78.4
2019-03-15T04:10:49.895Z,78.4
2019-03-15T04:11:39.908Z,78.3
2019-03-15T04:12:29.876Z,78.3
2019-03-15T04:13:19.888Z,78.4
2019-03-15T04:14:09.946Z,78.4
2019-03-15T04:14:59.879Z,78.4
2019-03-15T04:15:49.906Z,78.4
2019-03-15T04:16:39.926Z,78.5
2019-03-15T04:17:29.978Z,78.5
2019-03-15T04:18:19.916Z,78.5
2019-03-15T04:19:09.978Z,78.6
2019-03-15T04:19:59.876Z,78.7
2019-03-15T04:20:49.948Z,78.6
2019-03-15T04:21:39.924Z,78.6
2019-03-15T04:22:29.907Z,78.7
2019-03-15T04:23:19.891Z,78.7
2019-03-15T04:24:12.166Z,78.6
2019-03-15T04:25:06.901Z,78.5
2019-03-15T04:25:52.119Z,78.7
2019-03-15T04:26:42.153Z,78.6
2019-03-15T04:27:32.191Z,78.6
2019-03-15T04:28:22.149Z,78.6
2019-03-15T04:29:12.223Z,78.6
2019-03-15T04:30:02.264Z,78.8
2019-03-15T04:30:52.221Z,78.7
2019-03-15T04:31:42.168Z,78.6
2019-03-15T04:32:32.146Z,78.5
2019-03-15T04:33:22.201Z,78.7
2019-03-15T04:34:11.983Z,78.6
2019-03-15T04:35:02.395Z,78.8
2019-03-15T04:35:52.171Z,78.6
2019-03-15T04:36:42.238Z,78.8
2019-03-15T04:37:32.016Z,78.8
2019-03-15T04:38:21.951Z,78.9
2019-03-15T04:39:13.885Z,78.8
2019-03-15T04:40:01.940Z,78.8
2019-03-15T04:40:51.969Z,78.5
2019-03-15T04:41:42.042Z,78.9
2019-03-15T04:42:31.961Z,78.9
2019-03-15T04:43:22.014Z,78.8
2019-03-15T04:44:12.435Z,78.9
2019-03-15T04:45:01.951Z,79.1
2019-03-15T04:45:51.979Z,79.1
2019-03-15T04:46:41.982Z,79.1
2019-03-15T04:47:32.032Z,79
2019-03-15T04:48:21.986Z,79.2
2019-03-15T04:49:11.981Z,79.2
2019-03-15T04:50:01.969Z,79.3
2019-03-15T04:50:51.982Z,79.5
2019-03-15T04:51:42.067Z,79.5
2019-03-15T04:52:31.961Z,79.5
2019-03-15T04:53:21.944Z,79.4
2019-03-15T04:54:14.551Z,79.5
2019-03-15T04:55:01.918Z,79.6
2019-03-15T04:55:51.970Z,79.8
2019-03-15T04:56:42.059Z,79.8
2019-03-15T04:57:31.989Z,79.8
2019-03-15T04:58:22.526Z,79.9
2019-03-15T04:59:12.514Z,79.9
2019-03-15T05:00:02.472Z,80
2019-03-15T05:00:52.495Z,80.1
2019-03-15T05:01:42.471Z,80
2019-03-15T05:02:32.550Z,80.2
2019-03-15T05:03:22.657Z,80.3
2019-03-15T05:04:13.213Z,80.5
2019-03-15T05:05:02.577Z,80.7
2019-03-15T05:06:02.849Z,80.6
2019-03-15T05:06:43.151Z,80.9
2019-03-15T05:07:33.232Z,80.9
2019-03-15T05:08:23.473Z,81
2019-03-15T05:09:13.212Z,81
2019-03-15T05:10:03.175Z,81
2019-03-15T05:10:53.193Z,81.1
2019-03-15T05:11:43.151Z,81.2
2019-03-15T05:12:33.261Z,81.2
2019-03-15T05:13:24.039Z,81.2
2019-03-15T05:14:15.519Z,81.7
2019-03-15T05:15:03.838Z,81.7
2019-03-15T05:15:53.844Z,81.9
2019-03-15T05:16:45.905Z,81.9
2019-03-15T05:17:40.448Z,82.1
2019-03-15T05:18:31.498Z,82.6
2019-03-15T05:19:21.489Z,82.6
2019-03-15T05:20:12.526Z,82.6
2019-03-15T05:21:01.515Z,82.6
2019-03-15T05:21:51.516Z,82.8
2019-03-15T05:22:41.499Z,82.8
2019-03-15T05:23:31.644Z,82.7
2019-03-15T05:24:21.712Z,83
2019-03-15T05:25:13.204Z,83.2
2019-03-15T05:26:01.743Z,83.3
2019-03-15T05:26:51.728Z,83.4
2019-03-15T05:27:43.838Z,83.5
2019-03-15T05:28:33.966Z,83.5
2019-03-15T05:29:23.824Z,83.6
2019-03-15T05:30:13.763Z,83.5
2019-03-15T05:31:04.052Z,83.6
2019-03-15T05:31:54.058Z,83.6
2019-03-15T05:32:44.176Z,83.7
2019-03-15T05:33:34.053Z,83.8
2019-03-15T05:34:24.053Z,83.9
2019-03-15T05:35:14.339Z,83.9
2019-03-15T05:36:04.062Z,84
2019-03-15T05:36:54.100Z,84.2
2019-03-15T05:37:44.073Z,84.4
2019-03-15T05:38:34.947Z,84.4
2019-03-15T05:39:24.635Z,84.7
2019-03-15T05:40:19.434Z,84.8
2019-03-15T05:41:08.683Z,84.7
2019-03-15T05:41:58.725Z,84.7
2019-03-15T05:42:51.593Z,84.7
2019-03-15T05:43:41.560Z,84.6
2019-03-15T05:44:31.742Z,84.9
2019-03-15T05:45:21.493Z,85
2019-03-15T05:46:11.970Z,85
2019-03-15T05:47:01.796Z,85.1
2019-03-15T05:47:54.852Z,85
2019-03-15T05:48:44.573Z,85.3
2019-03-15T05:49:34.553Z,85.4
2019-03-15T05:50:24.620Z,85.4
2019-03-15T05:51:14.568Z,85.4
2019-03-15T05:52:04.566Z,85.3
2019-03-15T05:52:54.557Z,85.3
2019-03-15T05:53:44.573Z,85.4
2019-03-15T05:54:34.545Z,85.5
2019-03-15T05:55:24.671Z,85.6
2019-03-15T05:56:14.572Z,85.6
2019-03-15T05:57:04.572Z,85.5
2019-03-15T05:57:54.583Z,85.5
2019-03-15T05:58:44.563Z,85.8
2019-03-15T05:59:34.625Z,85.9
2019-03-15T06:00:24.601Z,86.1
2019-03-15T06:01:14.575Z,86.1
2019-03-15T06:02:04.552Z,86.1
2019-03-15T06:02:54.816Z,86
2019-03-15T06:03:48.722Z,86
2019-03-15T06:04:34.559Z,86
2019-03-15T06:05:24.596Z,86.1
2019-03-15T06:06:14.582Z,86.1
2019-03-15T06:07:04.587Z,86.1
2019-03-15T06:07:54.587Z,86.1
2019-03-15T06:08:44.576Z,86
2019-03-15T06:09:34.635Z,86
2019-03-15T06:10:24.643Z,86
2019-03-15T06:11:14.823Z,86.1
2019-03-15T06:12:05.562Z,86.2
2019-03-15T06:12:55.600Z,86.2
2019-03-15T06:13:45.648Z,86.1
2019-03-15T06:14:35.556Z,85.9
2019-03-15T06:15:25.573Z,86.2
2019-03-15T06:16:15.563Z,86.2
2019-03-15T06:17:05.583Z,86.2
2019-03-15T06:17:55.554Z,86.3
2019-03-15T06:18:46.017Z,86.3
2019-03-15T06:19:35.592Z,86.4
2019-03-15T06:20:27.197Z,86.5
2019-03-15T06:21:16.091Z,86.5
2019-03-15T06:22:05.563Z,86.6
2019-03-15T06:22:55.821Z,86.5
2019-03-15T06:23:45.751Z,86.6
2019-03-15T06:24:35.647Z,86.6
2019-03-15T06:25:26.394Z,86.7
2019-03-15T06:26:20.944Z,86.9
2019-03-15T06:27:11.550Z,86.9
2019-03-15T06:28:01.484Z,86.8
2019-03-15T06:28:51.466Z,86.9
2019-03-15T06:29:41.450Z,86.9
2019-03-15T06:30:32.409Z,86.9
2019-03-15T06:31:24.226Z,86.9
2019-03-15T06:32:12.322Z,87
2019-03-15T06:33:02.303Z,87.1
2019-03-15T06:33:52.434Z,87.2
2019-03-15T06:34:42.339Z,87.2
2019-03-15T06:35:32.324Z,87.3
2019-03-15T06:36:25.106Z,87.3
2019-03-15T06:37:12.294Z,87.4
2019-03-15T06:38:02.306Z,87.3
2019-03-15T06:50:31.112Z,88
2019-03-15T07:12:08.576Z,88.6
2019-03-15T07:12:45.417Z,88.7
2019-03-15T07:51:40.401Z,89.7
2019-03-15T07:53:41.713Z,89.6
2019-03-15T09:01:50.643Z,92.7
2019-03-15T09:26:42.080Z,92.8
2019-03-15T09:27:32.035Z,92.9
2019-03-15T09:48:06.052Z,93.7
2019-03-15T09:48:59.734Z,93.7
2019-03-15T10:01:34.596Z,93.9
2019-03-15T10:02:15.475Z,93.9
2019-03-15T10:47:07.373Z,93.1
2019-03-15T10:47:58.085Z,93
2019-03-15T10:48:49.221Z,92.9
2019-03-15T11:03:08.352Z,91.6
2019-03-15T11:03:57.929Z,91.5
2019-03-15T11:04:49.933Z,91.3
2019-03-15T11:05:40.313Z,91.4
2019-03-15T11:06:30.897Z,91.3
2019-03-15T11:32:08.720Z,88.8
2019-03-15T11:32:57.556Z,88.8
2019-03-15T11:33:47.799Z,88.7
2019-03-15T11:34:37.929Z,88.7
2019-03-15T11:35:28.582Z,88.6
2019-03-15T11:36:20.793Z,88.6
2019-03-15T11:37:13.931Z,88.5
2019-03-15T11:38:01.175Z,88.3
2019-03-15T11:38:53.122Z,88.3
2019-03-15T11:39:44.585Z,88
2019-03-15T11:40:37.851Z,87.7
2019-03-15T11:41:25.237Z,87.3
2019-03-15T11:42:16.013Z,87.3
2019-03-15T11:43:06.835Z,87.5
2019-03-15T12:00:55.881Z,87.4
2019-03-15T12:01:46.400Z,87.3
2019-03-15T12:02:42.007Z,87.2
2019-03-15T12:03:31.962Z,87.3
2019-03-15T12:04:22.569Z,87.1
2019-03-15T12:05:13.539Z,86.8
2019-03-15T12:06:04.167Z,86.8
2019-03-15T12:06:54.502Z,86.9
2019-03-15T12:07:44.677Z,86.9
2019-03-15T12:08:35.427Z,87.1
2019-03-15T12:09:25.570Z,87.2
2019-03-15T12:10:16.104Z,86.9
2019-03-15T12:11:06.110Z,86.8
2019-03-15T12:11:56.901Z,86.8
2019-03-15T12:12:47.541Z,86.4
2019-03-15T12:13:37.655Z,86.4
2019-03-15T12:14:40.037Z,86.2
2019-03-15T12:15:19.582Z,85.9
2019-03-15T12:16:09.504Z,86
2019-03-15T12:16:59.600Z,86.1
2019-03-15T12:17:57.254Z,86.1
2019-03-15T12:18:52.988Z,86.2
2019-03-15T12:19:43.539Z,86.2
2019-03-15T12:20:36.096Z,85.3
2019-03-15T12:21:26.044Z,84.7
2019-03-15T12:22:17.440Z,84.7
2019-03-15T12:23:06.450Z,84.6
2019-03-15T12:23:56.742Z,84.4
2019-03-15T12:24:47.219Z,84.7
2019-03-15T12:25:37.409Z,84.6
2019-03-15T12:26:39.667Z,84.7
2019-03-15T12:28:29.263Z,84.8
2019-03-15T12:29:20.981Z,85
2019-03-15T12:30:12.387Z,84.5
2019-03-15T12:31:02.667Z,84.5
2019-03-15T12:31:52.860Z,84.2
2019-03-15T12:32:43.105Z,83.6
2019-03-15T12:33:33.076Z,83.9
2019-03-15T12:34:37.838Z,83.8
2019-03-15T12:35:29.464Z,83.9
2019-03-15T12:36:19.739Z,83.9
2019-03-15T12:37:11.065Z,84
2019-03-15T12:38:01.799Z,84
2019-03-15T12:38:52.490Z,84
2019-03-15T12:39:42.462Z,84
2019-03-15T12:40:33.315Z,84
2019-03-15T12:41:24.944Z,84
2019-03-15T12:42:14.420Z,84
2019-03-15T12:43:05.250Z,83.9
2019-03-15T12:43:55.560Z,84
2019-03-15T12:44:46.398Z,83.9
2019-03-15T12:45:37.318Z,84
2019-03-15T12:46:27.366Z,83.6
2019-03-15T12:47:20.600Z,83.9
2019-03-15T12:48:10.449Z,83.9
2019-03-15T12:49:00.559Z,83.7
2019-03-15T13:01:26.085Z,83.3
2019-03-15T13:02:16.157Z,82.7
2019-03-15T13:03:06.235Z,82.6
2019-03-15T13:03:56.936Z,82.7
2019-03-15T13:04:46.844Z,82.8
2019-03-15T13:05:36.813Z,82
2019-03-15T13:06:26.797Z,82
2019-03-15T13:07:16.761Z,82.1
2019-03-15T13:08:06.861Z,82.1
2019-03-15T13:08:57.001Z,81.8
2019-03-15T13:09:48.049Z,81.8
2019-03-15T13:10:38.606Z,81.6
2019-03-15T13:11:28.974Z,81.7
2019-03-15T13:12:24.653Z,81.8
2019-03-15T13:13:12.723Z,81.9
2019-03-15T13:14:02.744Z,81.9
2019-03-15T13:14:52.720Z,81.6
2019-03-15T13:15:43.755Z,81.4
2019-03-15T13:16:33.714Z,81.5
2019-03-15T13:17:28.236Z,81.5
2019-03-15T13:18:14.671Z,81.7
2019-03-15T13:19:04.803Z,81.6
2019-03-15T13:19:55.649Z,81.6
2019-03-15T13:20:44.751Z,81.7
2019-03-15T13:21:35.475Z,81.8
2019-03-15T13:22:25.549Z,81.9
2019-03-15T13:23:16.407Z,81.5
2019-03-15T13:42:50.743Z,79.5
2019-03-15T13:43:41.478Z,79.8
2019-03-15T13:44:32.262Z,79.9
2019-03-15T13:45:27.787Z,79.8
2019-03-15T13:46:17.118Z,79.7
2019-03-15T13:47:07.243Z,79.7
2019-03-15T13:47:58.062Z,79.4
2019-03-15T13:48:49.953Z,79.3
2019-03-15T13:49:40.143Z,79.4
2019-03-15T13:50:30.742Z,79.4
2019-03-15T13:51:22.635Z,79.6
2019-03-15T13:52:23.863Z,79.3
2019-03-15T13:53:31.503Z,79.2
2019-03-15T14:21:28.546Z,81.8
2019-03-15T14:22:32.074Z,81.8
2019-03-15T14:24:37.447Z,82.3
2019-03-15T14:25:27.373Z,82.3
2019-03-15T14:26:17.364Z,82.1
2019-03-15T14:27:07.376Z,82.1
2019-03-15T14:27:57.417Z,82.1
2019-03-15T14:28:47.409Z,82.2
2019-03-15T14:29:38.739Z,82.2
2019-03-15T14:30:58.145Z,82.1
2019-03-15T14:31:17.369Z,82
2019-03-15T14:32:07.465Z,81.8
2019-03-15T14:32:57.360Z,81.8
2019-03-15T14:33:47.385Z,81.6
2019-03-15T14:34:37.361Z,81.5
2019-03-15T14:35:27.375Z,80.9
2019-03-15T14:36:17.374Z,80.8
2019-03-15T14:37:09.928Z,80.5
2019-03-15T14:37:57.447Z,80.6
2019-03-15T14:38:47.452Z,80.4
2019-03-15T14:39:37.506Z,80.2
2019-03-15T14:40:27.532Z,80
2019-03-15T14:41:17.424Z,80
2019-03-15T14:42:07.406Z,79.3
2019-03-15T14:42:57.577Z,79.4
2019-03-15T14:43:47.400Z,79.2
2019-03-15T14:44:37.602Z,79.6
2019-03-15T14:45:27.385Z,79.5
2019-03-15T14:46:18.242Z,79.6
2019-03-15T14:47:08.203Z,79.7
2019-03-15T14:47:58.209Z,79.5
2019-03-15T14:48:48.287Z,79.3
2019-03-15T14:49:39.144Z,79.3
2019-03-15T14:50:28.243Z,79.4
2019-03-15T14:51:18.236Z,79.4
2019-03-15T14:52:08.431Z,79.3
2019-03-15T14:52:58.236Z,78.9
2019-03-15T14:53:48.300Z,78.8
2019-03-15T14:54:38.239Z,78.6
2019-03-15T14:55:28.192Z,78.6
2019-03-15T14:56:18.221Z,78.7
2019-03-15T14:57:08.256Z,78.5
2019-03-15T14:58:00.081Z,78.7
2019-03-15T14:58:48.983Z,78.8
2019-03-15T14:59:38.408Z,78.6
2019-03-15T15:00:28.212Z,78.7
2019-03-15T15:01:18.269Z,78.5
2019-03-15T15:02:08.177Z,78.7
2019-03-15T15:02:58.249Z,78.8
2019-03-15T15:03:49.296Z,78.1
2019-03-15T15:04:38.276Z,78.6
2019-03-15T15:05:28.302Z,78.6
2019-03-15T15:06:18.242Z,78.7
2019-03-15T15:07:08.233Z,78.5
2019-03-15T15:07:58.234Z,78.6
2019-03-15T15:08:49.462Z,78.6
2019-03-15T15:09:38.215Z,78.6
2019-03-15T15:10:28.263Z,78.3
2019-03-15T15:11:18.305Z,78.3
2019-03-15T15:12:08.241Z,77.9
2019-03-15T15:12:58.222Z,78.3
2019-03-15T15:13:48.226Z,77.8
2019-03-15T15:14:38.210Z,77.6
2019-03-15T15:15:28.837Z,77.6
2019-03-15T15:16:20.698Z,77.4
2019-03-15T15:17:10.649Z,77.3
2019-03-15T15:18:01.779Z,77.4
2019-03-15T15:18:50.937Z,77.2
2019-03-15T15:19:41.284Z,77.4
2019-03-15T15:20:30.626Z,77.6
2019-03-15T15:21:20.719Z,77.7
2019-03-15T15:23:34.758Z,78
2019-03-15T15:24:24.688Z,77.8
2019-03-15T15:25:14.790Z,78
2019-03-15T15:26:04.570Z,77.6
2019-03-15T15:26:54.566Z,77.8
2019-03-15T15:27:44.615Z,77.7
2019-03-15T15:28:34.609Z,77.8
2019-03-15T15:29:24.553Z,77.8
2019-03-15T15:30:14.602Z,78
2019-03-15T15:31:04.658Z,78.1
2019-03-15T15:31:54.876Z,78.1
2019-03-15T15:32:44.584Z,78.1
2019-03-15T15:33:40.359Z,78.2
2019-03-15T15:34:30.235Z,77.9
2019-03-15T15:35:20.322Z,77.9
2019-03-15T15:36:10.315Z,77.9
2019-03-15T15:37:00.581Z,78.1
2019-03-15T15:37:50.356Z,77.9
2019-03-15T15:38:40.267Z,78.1
2019-03-15T15:39:30.264Z,78.1
2019-03-15T15:40:20.274Z,78.1
2019-03-15T15:41:10.276Z,78.1
2019-03-15T15:42:00.579Z,78.3
2019-03-15T15:42:50.265Z,78.4
2019-03-15T15:43:41.771Z,78.5
2019-03-15T15:44:30.257Z,78.8
2019-03-15T15:45:20.364Z,78.9
2019-03-15T15:46:10.257Z,79
2019-03-15T15:47:00.580Z,78.7
2019-03-15T15:47:50.494Z,78.9
2019-03-15T15:48:40.571Z,79.1
2019-03-15T15:49:30.489Z,79.4
2019-03-15T15:50:20.612Z,79.4
2019-03-15T15:51:10.575Z,79.4
2019-03-15T15:52:00.786Z,79.1
2019-03-15T15:52:50.822Z,79.3
2019-03-15T15:53:41.316Z,79.5
2019-03-15T15:54:32.140Z,79.6
2019-03-15T15:55:22.107Z,79.3
2019-03-15T15:56:12.037Z,79.5
2019-03-15T15:57:02.389Z,79.7
2019-03-15T15:57:55.561Z,79.8
2019-03-15T15:58:47.261Z,79.8
2019-03-15T15:59:37.305Z,79.9
2019-03-15T16:00:28.608Z,79.8
2019-03-15T16:01:19.924Z,79.8
2019-03-15T16:02:09.288Z,80
2019-03-15T16:02:59.282Z,79.8
2019-03-15T16:03:49.261Z,79.9
2019-03-15T16:04:44.292Z,79.9
2019-03-15T16:05:34.313Z,79.9
2019-03-15T16:06:24.916Z,79.8
2019-03-15T16:07:14.972Z,79.7
2019-03-15T16:08:04.925Z,79.5
2019-03-15T16:08:54.920Z,79.3
2019-03-15T16:09:45.173Z,79.5
2019-03-15T16:10:41.757Z,79.5
2019-03-15T16:11:32.026Z,79.5
2019-03-15T16:12:21.958Z,79.7
2019-03-15T16:13:17.001Z,79.7
2019-03-15T16:14:01.985Z,79.6
2019-03-15T16:14:51.969Z,79.9
2019-03-15T16:15:43.437Z,80.1
2019-03-15T16:16:31.962Z,80
2019-03-15T16:17:22.039Z,80.1
2019-03-15T16:18:11.999Z,80.3
2019-03-15T16:19:09.913Z,80.3
2019-03-15T16:20:03.744Z,80.4
2019-03-15T16:20:53.824Z,80.6
2019-03-15T16:21:44.703Z,80.6
2019-03-15T16:22:33.816Z,80.5
2019-03-15T16:23:24.880Z,80.5
2019-03-15T16:24:14.598Z,80.6
2019-03-15T16:25:03.873Z,80.6
2019-03-15T16:25:53.870Z,80.7
2019-03-15T16:26:49.596Z,80.9
2019-03-15T16:27:45.026Z,81
2019-03-15T16:28:36.404Z,80.9
2019-03-15T16:29:29.876Z,80.9
2019-03-15T16:30:19.879Z,80.8
2019-03-15T16:31:09.902Z,81
2019-03-15T16:32:02.688Z,80.8
2019-03-15T16:32:50.139Z,80.8
2019-03-15T16:33:40.660Z,81.1
2019-03-15T16:34:34.755Z,81
2019-03-15T16:35:29.950Z,80.9
2019-03-15T16:36:20.981Z,81
2019-03-15T16:37:12.056Z,81
2019-03-15T16:38:02.732Z,81.1
2019-03-15T16:39:07.927Z,80.8
2019-03-15T16:41:15.593Z,80.8
2019-03-15T16:42:05.445Z,81
2019-03-15T16:42:57.561Z,81.1
2019-03-15T16:43:53.825Z,81.2
2019-03-15T16:46:16.545Z,81.6
2019-03-15T16:47:18.677Z,80.9
2019-03-15T16:48:04.338Z,81.6
2019-03-15T16:48:52.606Z,81.5
2019-03-15T16:49:47.242Z,81.4
2019-03-15T16:50:36.127Z,81.6
2019-03-15T16:51:26.342Z,80.7
2019-03-15T16:52:26.512Z,81.7
2019-03-15T16:53:18.152Z,81.5
2019-03-15T16:54:08.231Z,81.6
2019-03-15T16:54:58.837Z,81.6
2019-03-15T16:55:49.389Z,81.3
2019-03-15T16:56:38.705Z,81.7
2019-03-15T16:57:28.181Z,81.6
2019-03-15T16:58:18.903Z,81.7
2019-03-15T16:59:09.857Z,81.6
2019-03-15T16:59:59.799Z,81.8
2019-03-15T17:00:49.803Z,81.8
2019-03-15T17:01:40.743Z,81.6
2019-03-15T17:02:29.838Z,81.7
2019-03-15T17:03:19.751Z,81.7
2019-03-15T17:04:10.518Z,81.7
2019-03-15T17:05:00.702Z,81.7
2019-03-15T17:05:50.578Z,81.7
2019-03-15T17:06:40.536Z,81.9
2019-03-15T17:07:30.518Z,81.6
2019-03-15T17:08:20.514Z,82
2019-03-15T17:09:10.585Z,81.9
2019-03-15T17:10:00.663Z,81.9
2019-03-15T17:10:50.533Z,82.1
2019-03-15T17:11:41.866Z,82.2
2019-03-15T17:12:30.531Z,82.1
2019-03-15T17:13:20.601Z,82.2